Portada
METAR-TAF:

METAR-TAF

Aeroports :

Sikeston, Missouri, Estats Units d'Amèrica

latitud: 36-53-56N, longitud: 089-33-42W, altitud: 96 m

Observació

L'informe es va fer fa 13 minuts, a les 15:35 UTC
Vent 5 kt del Sud
Temperatura -3°C
Humitat 68%
Pressió 1030 hPa
Visibilitat: 16.1 km
Cel clar

METAR: KSIK 131535Z AUTO 18005KT 10SM CLR M03/M08 A3041 RMK AO2

Hora: 09:48 (15:48 UTC)


TAF: manca

Observacions i pronòstics meteorològics de més de 4000 aeroports (METAR i TAF).

Les estacions disponibles són els punts grocs i vermells al mapa.

Posi el ratolí al punt desitjat per veure el nom de l'estació.

Feu clic per veure les observacions i els pronòstics meteorològics.

Per canviar el mapa: feu clic els botons verds amb una creu de color negre per apropar; al botó verd amb un guió per allunyar la imatge; o en les fletxes verdes per a mapes adjacents.


METAR-TAF: